Terminal Aerodrome Forecast
Issued by NWS

Home | Current Version | Previous Version | Text Only | Print | Product List | Glossary On
Versions: 1 2 3 4 5 6 7 8 9 10 11 12 13 14 15 16 17 18 19 20
000
FTUS42 TJSJ 201100
TAFJSJ
TAF
TJSJ 201123Z 2012/2112 00000KT P6SM VCSH FEW025 SCT060 SCT100
     FM201330 09013G20KT P6SM FEW030 SCT050
     FM202330 11005KT P6SM SCT025=

USA.gov is the U.S. government's official web portal to all federal, state and local government web resources and services.